sensor_id;sensor_type;location;lat;lon;timestamp;P1;durP1;ratioP1;P2;durP2;ratioP2
69970;SDS011;57301;50.328;8.542;2022-07-10T00:01:48;7.67;;;3.53;;
69970;SDS011;57301;50.328;8.542;2022-07-10T00:04:15;7.07;;;3.58;;
69970;SDS011;57301;50.328;8.542;2022-07-10T00:06:42;7.50;;;3.63;;
69970;SDS011;57301;50.328;8.542;2022-07-10T00:09:13;6.25;;;3.63;;
69970;SDS011;57301;50.328;8.542;2022-07-10T00:11:40;5.03;;;3.50;;
69970;SDS011;57301;50.328;8.542;2022-07-10T00:14:08;6.10;;;3.53;;
69970;SDS011;57301;50.328;8.542;2022-07-10T00:16:34;5.28;;;3.38;;
69970;SDS011;57301;50.328;8.542;2022-07-10T00:19:01;6.13;;;3.60;;
69970;SDS011;57301;50.328;8.542;2022-07-10T00:21:28;6.15;;;3.67;;
69970;SDS011;57301;50.328;8.542;2022-07-10T00:23:54;5.70;;;3.65;;
69970;SDS011;57301;50.328;8.542;2022-07-10T00:26:21;5.07;;;3.50;;
69970;SDS011;57301;50.328;8.542;2022-07-10T00:28:47;6.55;;;4.28;;
69970;SDS011;57301;50.328;8.542;2022-07-10T00:31:14;4.30;;;3.30;;
69970;SDS011;57301;50.328;8.542;2022-07-10T00:33:40;5.43;;;3.40;;
69970;SDS011;57301;50.328;8.542;2022-07-10T00:36:07;7.95;;;3.47;;
69970;SDS011;57301;50.328;8.542;2022-07-10T00:38:34;4.47;;;3.23;;
69970;SDS011;57301;50.328;8.542;2022-07-10T00:41:01;5.72;;;3.20;;
69970;SDS011;57301;50.328;8.542;2022-07-10T00:43:27;5.43;;;2.90;;
69970;SDS011;57301;50.328;8.542;2022-07-10T00:45:54;5.57;;;3.25;;
69970;SDS011;57301;50.328;8.542;2022-07-10T00:48:20;7.43;;;3.88;;
69970;SDS011;57301;50.328;8.542;2022-07-10T00:50:47;7.37;;;4.10;;
69970;SDS011;57301;50.328;8.542;2022-07-10T00:53:13;5.70;;;3.90;;
69970;SDS011;57301;50.328;8.542;2022-07-10T00:55:41;6.15;;;3.63;;
69970;SDS011;57301;50.328;8.542;2022-07-10T00:58:09;6.72;;;3.40;;
69970;SDS011;57301;50.328;8.542;2022-07-10T01:00:37;6.50;;;3.42;;
69970;SDS011;57301;50.328;8.542;2022-07-10T01:03:04;7.40;;;3.40;;
69970;SDS011;57301;50.328;8.542;2022-07-10T01:05:31;6.97;;;3.72;;
69970;SDS011;57301;50.328;8.542;2022-07-10T01:07:58;7.88;;;3.20;;
69970;SDS011;57301;50.328;8.542;2022-07-10T01:10:24;5.95;;;3.17;;
69970;SDS011;57301;50.328;8.542;2022-07-10T01:12:51;6.50;;;3.35;;
69970;SDS011;57301;50.328;8.542;2022-07-10T01:15:18;7.03;;;3.13;;
69970;SDS011;57301;50.328;8.542;2022-07-10T01:17:44;5.47;;;3.10;;
69970;SDS011;57301;50.328;8.542;2022-07-10T01:20:11;4.60;;;2.75;;
69970;SDS011;57301;50.328;8.542;2022-07-10T01:22:38;4.15;;;2.80;;
69970;SDS011;57301;50.328;8.542;2022-07-10T01:25:05;5.32;;;3.20;;
69970;SDS011;57301;50.328;8.542;2022-07-10T01:27:32;6.30;;;3.43;;
69970;SDS011;57301;50.328;8.542;2022-07-10T01:29:59;7.72;;;3.60;;
69970;SDS011;57301;50.328;8.542;2022-07-10T01:32:25;7.78;;;3.00;;
69970;SDS011;57301;50.328;8.542;2022-07-10T01:34:52;4.82;;;2.67;;
69970;SDS011;57301;50.328;8.542;2022-07-10T01:37:18;5.80;;;2.90;;
69970;SDS011;57301;50.328;8.542;2022-07-10T01:39:45;5.63;;;2.70;;
69970;SDS011;57301;50.328;8.542;2022-07-10T01:42:11;9.80;;;3.33;;
69970;SDS011;57301;50.328;8.542;2022-07-10T01:44:38;5.40;;;2.72;;
69970;SDS011;57301;50.328;8.542;2022-07-10T01:47:04;4.47;;;2.90;;
69970;SDS011;57301;50.328;8.542;2022-07-10T01:49:31;6.63;;;2.78;;
69970;SDS011;57301;50.328;8.542;2022-07-10T01:51:59;7.10;;;2.73;;
69970;SDS011;57301;50.328;8.542;2022-07-10T01:54:25;7.65;;;3.30;;
69970;SDS011;57301;50.328;8.542;2022-07-10T01:56:52;6.10;;;2.88;;
69970;SDS011;57301;50.328;8.542;2022-07-10T01:59:18;6.15;;;2.85;;
69970;SDS011;57301;50.328;8.542;2022-07-10T02:01:45;4.10;;;2.60;;
69970;SDS011;57301;50.328;8.542;2022-07-10T02:04:11;4.53;;;2.67;;
69970;SDS011;57301;50.328;8.542;2022-07-10T02:06:56;4.22;;;2.78;;
69970;SDS011;57301;50.328;8.542;2022-07-10T02:09:22;7.40;;;2.92;;
69970;SDS011;57301;50.328;8.542;2022-07-10T02:11:50;4.70;;;2.85;;
69970;SDS011;57301;50.328;8.542;2022-07-10T02:14:16;4.55;;;2.70;;
69970;SDS011;57301;50.328;8.542;2022-07-10T02:16:43;6.60;;;2.80;;
69970;SDS011;57301;50.328;8.542;2022-07-10T02:19:11;5.60;;;3.00;;
69970;SDS011;57301;50.328;8.542;2022-07-10T02:21:37;4.65;;;2.50;;
69970;SDS011;57301;50.328;8.542;2022-07-10T02:24:04;8.35;;;2.75;;
69970;SDS011;57301;50.328;8.542;2022-07-10T02:26:30;6.13;;;2.70;;
69970;SDS011;57301;50.328;8.542;2022-07-10T02:28:57;7.03;;;2.60;;
69970;SDS011;57301;50.328;8.542;2022-07-10T02:31:23;4.00;;;2.45;;
69970;SDS011;57301;50.328;8.542;2022-07-10T02:33:50;5.60;;;2.60;;
69970;SDS011;57301;50.328;8.542;2022-07-10T02:36:16;5.65;;;2.60;;
69970;SDS011;57301;50.328;8.542;2022-07-10T02:38:43;5.95;;;2.53;;
69970;SDS011;57301;50.328;8.542;2022-07-10T02:41:09;5.37;;;2.50;;
69970;SDS011;57301;50.328;8.542;2022-07-10T02:43:36;4.85;;;2.15;;
69970;SDS011;57301;50.328;8.542;2022-07-10T02:46:02;4.85;;;2.35;;
69970;SDS011;57301;50.328;8.542;2022-07-10T02:48:29;5.82;;;2.40;;
69970;SDS011;57301;50.328;8.542;2022-07-10T02:50:56;5.13;;;2.33;;
69970;SDS011;57301;50.328;8.542;2022-07-10T02:53:22;6.83;;;2.40;;
69970;SDS011;57301;50.328;8.542;2022-07-10T02:55:49;7.57;;;2.40;;
69970;SDS011;57301;50.328;8.542;2022-07-10T02:58:15;6.43;;;2.58;;
69970;SDS011;57301;50.328;8.542;2022-07-10T03:00:43;7.93;;;4.50;;
69970;SDS011;57301;50.328;8.542;2022-07-10T03:03:10;14.57;;;6.15;;
69970;SDS011;57301;50.328;8.542;2022-07-10T03:05:36;6.87;;;3.10;;
69970;SDS011;57301;50.328;8.542;2022-07-10T03:08:03;14.07;;;2.70;;
69970;SDS011;57301;50.328;8.542;2022-07-10T03:10:30;5.22;;;2.53;;
69970;SDS011;57301;50.328;8.542;2022-07-10T03:12:56;4.88;;;2.30;;
69970;SDS011;57301;50.328;8.542;2022-07-10T03:15:23;4.03;;;2.08;;
69970;SDS011;57301;50.328;8.542;2022-07-10T03:17:49;3.97;;;2.40;;
69970;SDS011;57301;50.328;8.542;2022-07-10T03:20:16;6.90;;;2.40;;
69970;SDS011;57301;50.328;8.542;2022-07-10T03:22:43;6.82;;;2.30;;
69970;SDS011;57301;50.328;8.542;2022-07-10T03:25:09;7.53;;;2.20;;
69970;SDS011;57301;50.328;8.542;2022-07-10T03:27:36;3.70;;;2.20;;
69970;SDS011;57301;50.328;8.542;2022-07-10T03:30:03;6.17;;;2.20;;
69970;SDS011;57301;50.328;8.542;2022-07-10T03:32:30;4.70;;;2.22;;
69970;SDS011;57301;50.328;8.542;2022-07-10T03:34:56;5.55;;;2.35;;
69970;SDS011;57301;50.328;8.542;2022-07-10T03:37:23;6.15;;;2.30;;
69970;SDS011;57301;50.328;8.542;2022-07-10T03:39:49;7.60;;;2.30;;
69970;SDS011;57301;50.328;8.542;2022-07-10T03:42:16;6.30;;;2.20;;
69970;SDS011;57301;50.328;8.542;2022-07-10T03:44:42;5.25;;;2.30;;
69970;SDS011;57301;50.328;8.542;2022-07-10T03:47:09;5.78;;;2.25;;
69970;SDS011;57301;50.328;8.542;2022-07-10T03:49:36;5.72;;;2.30;;
69970;SDS011;57301;50.328;8.542;2022-07-10T03:52:04;9.93;;;2.20;;
69970;SDS011;57301;50.328;8.542;2022-07-10T03:54:31;5.27;;;1.97;;
69970;SDS011;57301;50.328;8.542;2022-07-10T03:56:58;5.80;;;2.15;;
69970;SDS011;57301;50.328;8.542;2022-07-10T03:59:43;6.25;;;1.98;;
69970;SDS011;57301;50.328;8.542;2022-07-10T04:02:09;5.25;;;2.10;;
69970;SDS011;57301;50.328;8.542;2022-07-10T04:04:37;5.13;;;1.90;;
69970;SDS011;57301;50.328;8.542;2022-07-10T04:07:03;6.47;;;2.30;;
69970;SDS011;57301;50.328;8.542;2022-07-10T04:09:31;4.40;;;2.03;;
69970;SDS011;57301;50.328;8.542;2022-07-10T04:11:58;3.90;;;1.85;;
69970;SDS011;57301;50.328;8.542;2022-07-10T04:14:24;4.60;;;1.92;;
69970;SDS011;57301;50.328;8.542;2022-07-10T04:16:51;5.55;;;2.13;;
69970;SDS011;57301;50.328;8.542;2022-07-10T04:19:17;7.63;;;2.07;;
69970;SDS011;57301;50.328;8.542;2022-07-10T04:21:44;4.80;;;1.95;;
69970;SDS011;57301;50.328;8.542;2022-07-10T04:24:10;5.30;;;1.90;;
69970;SDS011;57301;50.328;8.542;2022-07-10T04:26:37;5.47;;;2.22;;
69970;SDS011;57301;50.328;8.542;2022-07-10T04:29:03;6.82;;;2.22;;
69970;SDS011;57301;50.328;8.542;2022-07-10T04:31:30;7.53;;;2.30;;
69970;SDS011;57301;50.328;8.542;2022-07-10T04:33:56;5.25;;;2.35;;
69970;SDS011;57301;50.328;8.542;2022-07-10T04:36:23;5.60;;;2.35;;
69970;SDS011;57301;50.328;8.542;2022-07-10T04:38:50;5.70;;;2.10;;
69970;SDS011;57301;50.328;8.542;2022-07-10T04:41:17;3.88;;;1.80;;
69970;SDS011;57301;50.328;8.542;2022-07-10T04:43:43;4.93;;;1.93;;
69970;SDS011;57301;50.328;8.542;2022-07-10T04:46:09;5.22;;;1.70;;
69970;SDS011;57301;50.328;8.542;2022-07-10T04:48:36;5.53;;;1.98;;
69970;SDS011;57301;50.328;8.542;2022-07-10T04:51:03;4.78;;;1.70;;
69970;SDS011;57301;50.328;8.542;2022-07-10T04:53:30;7.65;;;1.90;;
69970;SDS011;57301;50.328;8.542;2022-07-10T04:55:56;3.30;;;2.00;;
69970;SDS011;57301;50.328;8.542;2022-07-10T04:58:23;6.00;;;1.80;;
69970;SDS011;57301;50.328;8.542;2022-07-10T05:00:49;4.47;;;1.95;;
69970;SDS011;57301;50.328;8.542;2022-07-10T05:03:16;5.20;;;1.88;;
69970;SDS011;57301;50.328;8.542;2022-07-10T05:05:42;4.50;;;1.60;;
69970;SDS011;57301;50.328;8.542;2022-07-10T05:08:09;4.53;;;1.93;;
69970;SDS011;57301;50.328;8.542;2022-07-10T05:10:36;5.45;;;1.80;;
69970;SDS011;57301;50.328;8.542;2022-07-10T05:13:02;6.25;;;1.70;;
69970;SDS011;57301;50.328;8.542;2022-07-10T05:15:29;5.50;;;1.67;;
69970;SDS011;57301;50.328;8.542;2022-07-10T05:17:56;6.70;;;1.90;;
69970;SDS011;57301;50.328;8.542;2022-07-10T05:20:22;4.30;;;1.63;;
69970;SDS011;57301;50.328;8.542;2022-07-10T05:22:49;7.30;;;1.83;;
69970;SDS011;57301;50.328;8.542;2022-07-10T05:25:15;4.22;;;1.80;;
69970;SDS011;57301;50.328;8.542;2022-07-10T05:27:42;5.35;;;1.75;;
69970;SDS011;57301;50.328;8.542;2022-07-10T05:30:08;2.78;;;1.60;;
69970;SDS011;57301;50.328;8.542;2022-07-10T05:32:41;3.67;;;1.53;;
69970;SDS011;57301;50.328;8.542;2022-07-10T05:35:09;4.88;;;1.70;;
69970;SDS011;57301;50.328;8.542;2022-07-10T05:37:36;6.82;;;2.00;;
69970;SDS011;57301;50.328;8.542;2022-07-10T05:40:03;5.25;;;2.25;;
69970;SDS011;57301;50.328;8.542;2022-07-10T05:42:29;7.13;;;1.73;;
69970;SDS011;57301;50.328;8.542;2022-07-10T05:44:56;4.50;;;1.50;;
69970;SDS011;57301;50.328;8.542;2022-07-10T05:47:22;5.88;;;1.90;;
69970;SDS011;57301;50.328;8.542;2022-07-10T05:49:49;5.63;;;2.03;;
69970;SDS011;57301;50.328;8.542;2022-07-10T05:52:15;3.95;;;2.10;;
69970;SDS011;57301;50.328;8.542;2022-07-10T05:54:42;4.95;;;1.70;;
69970;SDS011;57301;50.328;8.542;2022-07-10T05:57:08;4.87;;;1.70;;
69970;SDS011;57301;50.328;8.542;2022-07-10T05:59:35;4.75;;;2.03;;
69970;SDS011;57301;50.328;8.542;2022-07-10T06:02:02;6.75;;;1.77;;
69970;SDS011;57301;50.328;8.542;2022-07-10T06:04:29;5.25;;;1.80;;
69970;SDS011;57301;50.328;8.542;2022-07-10T06:06:55;7.20;;;1.80;;
69970;SDS011;57301;50.328;8.542;2022-07-10T06:09:22;5.93;;;1.77;;
69970;SDS011;57301;50.328;8.542;2022-07-10T06:11:48;7.78;;;1.98;;
69970;SDS011;57301;50.328;8.542;2022-07-10T06:14:15;7.93;;;1.90;;
69970;SDS011;57301;50.328;8.542;2022-07-10T06:16:42;4.88;;;1.63;;
69970;SDS011;57301;50.328;8.542;2022-07-10T06:19:09;5.20;;;1.73;;
69970;SDS011;57301;50.328;8.542;2022-07-10T06:21:35;7.33;;;2.27;;
69970;SDS011;57301;50.328;8.542;2022-07-10T06:24:02;7.25;;;1.60;;
69970;SDS011;57301;50.328;8.542;2022-07-10T06:26:28;4.78;;;1.67;;
69970;SDS011;57301;50.328;8.542;2022-07-10T06:28:55;5.18;;;1.65;;
69970;SDS011;57301;50.328;8.542;2022-07-10T06:31:21;4.18;;;1.58;;
69970;SDS011;57301;50.328;8.542;2022-07-10T06:33:48;4.70;;;1.70;;
69970;SDS011;57301;50.328;8.542;2022-07-10T06:36:15;4.07;;;1.42;;
69970;SDS011;57301;50.328;8.542;2022-07-10T06:38:46;4.72;;;1.60;;
69970;SDS011;57301;50.328;8.542;2022-07-10T06:41:13;4.75;;;1.60;;
69970;SDS011;57301;50.328;8.542;2022-07-10T06:43:39;4.57;;;1.42;;
69970;SDS011;57301;50.328;8.542;2022-07-10T06:46:06;8.13;;;1.90;;
69970;SDS011;57301;50.328;8.542;2022-07-10T06:48:32;9.60;;;5.43;;
69970;SDS011;57301;50.328;8.542;2022-07-10T06:50:59;8.55;;;4.88;;
69970;SDS011;57301;50.328;8.542;2022-07-10T06:53:25;5.72;;;1.88;;
69970;SDS011;57301;50.328;8.542;2022-07-10T06:55:53;3.78;;;1.38;;
69970;SDS011;57301;50.328;8.542;2022-07-10T06:58:20;4.67;;;1.47;;
69970;SDS011;57301;50.328;8.542;2022-07-10T07:00:46;4.43;;;1.60;;
69970;SDS011;57301;50.328;8.542;2022-07-10T07:03:13;6.15;;;1.83;;
69970;SDS011;57301;50.328;8.542;2022-07-10T07:05:39;4.05;;;1.30;;
69970;SDS011;57301;50.328;8.542;2022-07-10T07:08:06;4.60;;;1.50;;
69970;SDS011;57301;50.328;8.542;2022-07-10T07:10:32;4.10;;;1.90;;
69970;SDS011;57301;50.328;8.542;2022-07-10T07:12:59;4.50;;;1.77;;
69970;SDS011;57301;50.328;8.542;2022-07-10T07:15:25;6.75;;;1.75;;
69970;SDS011;57301;50.328;8.542;2022-07-10T07:17:52;6.50;;;1.80;;
69970;SDS011;57301;50.328;8.542;2022-07-10T07:20:34;5.25;;;1.52;;
69970;SDS011;57301;50.328;8.542;2022-07-10T07:23:19;5.40;;;1.70;;
69970;SDS011;57301;50.328;8.542;2022-07-10T07:25:46;5.95;;;1.83;;
69970;SDS011;57301;50.328;8.542;2022-07-10T07:28:14;4.75;;;1.80;;
69970;SDS011;57301;50.328;8.542;2022-07-10T07:30:42;5.15;;;1.60;;
69970;SDS011;57301;50.328;8.542;2022-07-10T07:33:09;5.35;;;1.80;;
69970;SDS011;57301;50.328;8.542;2022-07-10T07:35:35;5.57;;;1.97;;
69970;SDS011;57301;50.328;8.542;2022-07-10T07:38:03;4.68;;;1.60;;
69970;SDS011;57301;50.328;8.542;2022-07-10T07:40:29;5.03;;;1.70;;
69970;SDS011;57301;50.328;8.542;2022-07-10T07:42:56;5.65;;;1.50;;
69970;SDS011;57301;50.328;8.542;2022-07-10T07:45:22;6.00;;;1.73;;
69970;SDS011;57301;50.328;8.542;2022-07-10T07:47:50;3.53;;;1.37;;
69970;SDS011;57301;50.328;8.542;2022-07-10T07:50:26;6.13;;;1.60;;
69970;SDS011;57301;50.328;8.542;2022-07-10T07:52:59;5.82;;;1.45;;
69970;SDS011;57301;50.328;8.542;2022-07-10T07:55:27;7.32;;;1.83;;
69970;SDS011;57301;50.328;8.542;2022-07-10T07:57:55;5.28;;;1.60;;
69970;SDS011;57301;50.328;8.542;2022-07-10T08:00:23;4.83;;;1.63;;
69970;SDS011;57301;50.328;8.542;2022-07-10T08:02:51;3.97;;;1.40;;
69970;SDS011;57301;50.328;8.542;2022-07-10T08:05:19;3.67;;;1.40;;
69970;SDS011;57301;50.328;8.542;2022-07-10T08:07:48;5.32;;;1.50;;
69970;SDS011;57301;50.328;8.542;2022-07-10T08:10:18;3.60;;;1.27;;
69970;SDS011;57301;50.328;8.542;2022-07-10T08:12:46;5.63;;;1.83;;
69970;SDS011;57301;50.328;8.542;2022-07-10T08:15:17;7.78;;;2.72;;
69970;SDS011;57301;50.328;8.542;2022-07-10T08:17:48;7.93;;;1.98;;
69970;SDS011;57301;50.328;8.542;2022-07-10T08:20:16;5.85;;;1.40;;
69970;SDS011;57301;50.328;8.542;2022-07-10T08:22:43;5.10;;;1.48;;
69970;SDS011;57301;50.328;8.542;2022-07-10T08:25:11;4.33;;;1.70;;
69970;SDS011;57301;50.328;8.542;2022-07-10T08:27:39;5.43;;;1.63;;
69970;SDS011;57301;50.328;8.542;2022-07-10T08:30:06;6.68;;;1.60;;
69970;SDS011;57301;50.328;8.542;2022-07-10T08:32:38;4.97;;;1.45;;
69970;SDS011;57301;50.328;8.542;2022-07-10T08:35:05;3.70;;;1.52;;
69970;SDS011;57301;50.328;8.542;2022-07-10T08:37:36;3.47;;;1.47;;
69970;SDS011;57301;50.328;8.542;2022-07-10T08:40:08;8.93;;;1.85;;
69970;SDS011;57301;50.328;8.542;2022-07-10T08:42:35;10.55;;;4.45;;
69970;SDS011;57301;50.328;8.542;2022-07-10T08:45:02;5.93;;;2.53;;
69970;SDS011;57301;50.328;8.542;2022-07-10T08:47:29;4.88;;;1.42;;
69970;SDS011;57301;50.328;8.542;2022-07-10T08:50:03;4.13;;;1.50;;
69970;SDS011;57301;50.328;8.542;2022-07-10T08:55:13;5.18;;;1.50;;
69970;SDS011;57301;50.328;8.542;2022-07-10T08:57:40;6.38;;;1.50;;
69970;SDS011;57301;50.328;8.542;2022-07-10T09:00:09;5.07;;;1.80;;
69970;SDS011;57301;50.328;8.542;2022-07-10T09:02:36;3.30;;;1.47;;
69970;SDS011;57301;50.328;8.542;2022-07-10T09:05:02;3.90;;;1.40;;
69970;SDS011;57301;50.328;8.542;2022-07-10T09:07:35;7.47;;;2.00;;
69970;SDS011;57301;50.328;8.542;2022-07-10T09:10:06;3.85;;;1.45;;
69970;SDS011;57301;50.328;8.542;2022-07-10T09:15:34;7.77;;;1.80;;
69970;SDS011;57301;50.328;8.542;2022-07-10T09:18:02;6.22;;;1.80;;
69970;SDS011;57301;50.328;8.542;2022-07-10T09:20:35;5.38;;;1.60;;
69970;SDS011;57301;50.328;8.542;2022-07-10T09:23:14;5.40;;;1.60;;
69970;SDS011;57301;50.328;8.542;2022-07-10T09:25:49;5.45;;;1.60;;
69970;SDS011;57301;50.328;8.542;2022-07-10T09:28:18;5.63;;;1.60;;
69970;SDS011;57301;50.328;8.542;2022-07-10T09:30:49;6.80;;;1.70;;
69970;SDS011;57301;50.328;8.542;2022-07-10T09:33:17;4.70;;;1.67;;
69970;SDS011;57301;50.328;8.542;2022-07-10T09:36:01;4.65;;;1.50;;
69970;SDS011;57301;50.328;8.542;2022-07-10T09:43:47;5.30;;;1.70;;
69970;SDS011;57301;50.328;8.542;2022-07-10T09:46:15;5.45;;;1.83;;
69970;SDS011;57301;50.328;8.542;2022-07-10T09:48:42;4.65;;;1.73;;
69970;SDS011;57301;50.328;8.542;2022-07-10T09:51:09;5.82;;;2.00;;
69970;SDS011;57301;50.328;8.542;2022-07-10T09:53:38;5.00;;;1.80;;
69970;SDS011;57301;50.328;8.542;2022-07-10T09:56:09;3.58;;;1.42;;
69970;SDS011;57301;50.328;8.542;2022-07-10T09:58:37;5.13;;;1.73;;
69970;SDS011;57301;50.328;8.542;2022-07-10T10:01:06;4.47;;;1.83;;
69970;SDS011;57301;50.328;8.542;2022-07-10T10:03:35;4.35;;;1.70;;
69970;SDS011;57301;50.328;8.542;2022-07-10T10:06:04;5.87;;;1.67;;
69970;SDS011;57301;50.328;8.542;2022-07-10T10:08:56;7.05;;;1.63;;
69970;SDS011;57301;50.328;8.542;2022-07-10T10:11:29;6.63;;;2.65;;
69970;SDS011;57301;50.328;8.542;2022-07-10T10:13:58;6.95;;;1.88;;
69970;SDS011;57301;50.328;8.542;2022-07-10T10:16:27;4.70;;;1.95;;
69970;SDS011;57301;50.328;8.542;2022-07-10T10:19:00;5.60;;;1.60;;
69970;SDS011;57301;50.328;8.542;2022-07-10T10:21:46;5.05;;;1.67;;
69970;SDS011;57301;50.328;8.542;2022-07-10T10:24:14;6.07;;;1.85;;
69970;SDS011;57301;50.328;8.542;2022-07-10T10:26:42;3.72;;;1.48;;
69970;SDS011;57301;50.328;8.542;2022-07-10T10:29:10;5.88;;;1.60;;
69970;SDS011;57301;50.328;8.542;2022-07-10T10:31:38;5.00;;;1.50;;
69970;SDS011;57301;50.328;8.542;2022-07-10T10:34:06;6.25;;;1.67;;
69970;SDS011;57301;50.328;8.542;2022-07-10T10:39:19;4.85;;;1.58;;
69970;SDS011;57301;50.328;8.542;2022-07-10T10:44:20;5.70;;;1.57;;
69970;SDS011;57301;50.328;8.542;2022-07-10T10:49:24;6.78;;;1.80;;
69970;SDS011;57301;50.328;8.542;2022-07-10T10:54:28;4.72;;;1.27;;
69970;SDS011;57301;50.328;8.542;2022-07-10T10:57:15;3.43;;;1.40;;
69970;SDS011;57301;50.328;8.542;2022-07-10T10:59:46;3.70;;;1.40;;
69970;SDS011;57301;50.328;8.542;2022-07-10T11:02:28;6.35;;;1.60;;
69970;SDS011;57301;50.328;8.542;2022-07-10T11:08:00;5.15;;;1.40;;
69970;SDS011;57301;50.328;8.542;2022-07-10T11:10:29;4.90;;;1.30;;
69970;SDS011;57301;50.328;8.542;2022-07-10T11:13:14;8.23;;;1.45;;
69970;SDS011;57301;50.328;8.542;2022-07-10T11:15:43;7.30;;;1.55;;
69970;SDS011;57301;50.328;8.542;2022-07-10T11:31:24;8.25;;;2.20;;
69970;SDS011;57301;50.328;8.542;2022-07-10T11:33:53;4.68;;;1.48;;
69970;SDS011;57301;50.328;8.542;2022-07-10T11:36:22;5.73;;;1.43;;
69970;SDS011;57301;50.328;8.542;2022-07-10T11:38:56;4.50;;;1.48;;
69970;SDS011;57301;50.328;8.542;2022-07-10T11:41:24;3.80;;;1.42;;
69970;SDS011;57301;50.328;8.542;2022-07-10T11:46:29;8.57;;;1.67;;
69970;SDS011;57301;50.328;8.542;2022-07-10T11:49:04;4.23;;;1.50;;
69970;SDS011;57301;50.328;8.542;2022-07-10T11:51:34;4.88;;;1.23;;
69970;SDS011;57301;50.328;8.542;2022-07-10T11:54:07;2.70;;;1.13;;
69970;SDS011;57301;50.328;8.542;2022-07-10T11:56:48;4.63;;;1.20;;
69970;SDS011;57301;50.328;8.542;2022-07-10T11:59:26;4.85;;;1.42;;
69970;SDS011;57301;50.328;8.542;2022-07-10T12:01:54;5.07;;;2.13;;
69970;SDS011;57301;50.328;8.542;2022-07-10T12:04:22;6.70;;;3.42;;
69970;SDS011;57301;50.328;8.542;2022-07-10T12:06:51;13.65;;;8.85;;
69970;SDS011;57301;50.328;8.542;2022-07-10T12:09:20;6.93;;;4.30;;
69970;SDS011;57301;50.328;8.542;2022-07-10T12:14:32;4.93;;;3.03;;
69970;SDS011;57301;50.328;8.542;2022-07-10T12:16:59;8.90;;;4.50;;
69970;SDS011;57301;50.328;8.542;2022-07-10T12:19:29;4.75;;;2.08;;
69970;SDS011;57301;50.328;8.542;2022-07-10T12:22:02;8.38;;;4.68;;
69970;SDS011;57301;50.328;8.542;2022-07-10T12:24:31;5.63;;;2.25;;
69970;SDS011;57301;50.328;8.542;2022-07-10T12:26:58;5.43;;;2.17;;
69970;SDS011;57301;50.328;8.542;2022-07-10T12:29:25;7.18;;;4.07;;
69970;SDS011;57301;50.328;8.542;2022-07-10T12:31:59;5.13;;;2.78;;
69970;SDS011;57301;50.328;8.542;2022-07-10T12:37:13;8.50;;;2.58;;
69970;SDS011;57301;50.328;8.542;2022-07-10T12:39:47;5.83;;;2.00;;
69970;SDS011;57301;50.328;8.542;2022-07-10T12:45:08;5.95;;;2.22;;
69970;SDS011;57301;50.328;8.542;2022-07-10T12:47:45;4.75;;;1.40;;
69970;SDS011;57301;50.328;8.542;2022-07-10T12:50:13;5.68;;;1.90;;
69970;SDS011;57301;50.328;8.542;2022-07-10T12:52:40;3.57;;;1.60;;
69970;SDS011;57301;50.328;8.542;2022-07-10T12:57:52;7.63;;;2.03;;
69970;SDS011;57301;50.328;8.542;2022-07-10T13:00:30;37.00;;;10.07;;
69970;SDS011;57301;50.328;8.542;2022-07-10T13:03:09;25.90;;;7.63;;
69970;SDS011;57301;50.328;8.542;2022-07-10T13:05:38;63.80;;;14.93;;
69970;SDS011;57301;50.328;8.542;2022-07-10T13:08:06;9.63;;;2.92;;
69970;SDS011;57301;50.328;8.542;2022-07-10T13:10:39;6.97;;;2.13;;
69970;SDS011;57301;50.328;8.542;2022-07-10T13:13:07;6.35;;;2.35;;
69970;SDS011;57301;50.328;8.542;2022-07-10T13:15:34;8.75;;;2.38;;
69970;SDS011;57301;50.328;8.542;2022-07-10T13:20:49;4.72;;;1.60;;
69970;SDS011;57301;50.328;8.542;2022-07-10T13:23:26;8.50;;;2.40;;
69970;SDS011;57301;50.328;8.542;2022-07-10T13:25:54;10.63;;;2.63;;
69970;SDS011;57301;50.328;8.542;2022-07-10T13:28:25;7.30;;;2.42;;
69970;SDS011;57301;50.328;8.542;2022-07-10T13:30:51;4.70;;;1.60;;
69970;SDS011;57301;50.328;8.542;2022-07-10T13:33:18;3.95;;;1.70;;
69970;SDS011;57301;50.328;8.542;2022-07-10T13:35:45;5.30;;;2.45;;
69970;SDS011;57301;50.328;8.542;2022-07-10T13:38:12;3.83;;;1.55;;
69970;SDS011;57301;50.328;8.542;2022-07-10T13:40:43;3.78;;;1.00;;
69970;SDS011;57301;50.328;8.542;2022-07-10T13:43:10;4.60;;;1.53;;
69970;SDS011;57301;50.328;8.542;2022-07-10T13:45:39;4.00;;;1.40;;
69970;SDS011;57301;50.328;8.542;2022-07-10T13:48:12;4.03;;;2.10;;
69970;SDS011;57301;50.328;8.542;2022-07-10T13:50:40;4.88;;;2.30;;
69970;SDS011;57301;50.328;8.542;2022-07-10T13:53:07;3.13;;;1.15;;
69970;SDS011;57301;50.328;8.542;2022-07-10T13:55:34;2.47;;;1.13;;
69970;SDS011;57301;50.328;8.542;2022-07-10T13:58:01;3.63;;;1.15;;
69970;SDS011;57301;50.328;8.542;2022-07-10T14:00:28;3.78;;;1.40;;
69970;SDS011;57301;50.328;8.542;2022-07-10T14:02:55;3.63;;;1.10;;
69970;SDS011;57301;50.328;8.542;2022-07-10T14:05:23;4.20;;;1.08;;
69970;SDS011;57301;50.328;8.542;2022-07-10T14:07:50;3.03;;;1.00;;
69970;SDS011;57301;50.328;8.542;2022-07-10T14:10:16;3.15;;;1.23;;
69970;SDS011;57301;50.328;8.542;2022-07-10T14:12:43;2.55;;;0.98;;
69970;SDS011;57301;50.328;8.542;2022-07-10T14:15:10;3.90;;;1.00;;
69970;SDS011;57301;50.328;8.542;2022-07-10T14:17:36;4.55;;;1.02;;
69970;SDS011;57301;50.328;8.542;2022-07-10T14:20:03;2.90;;;1.30;;
69970;SDS011;57301;50.328;8.542;2022-07-10T14:22:30;2.88;;;1.00;;
69970;SDS011;57301;50.328;8.542;2022-07-10T14:24:56;4.20;;;1.00;;
69970;SDS011;57301;50.328;8.542;2022-07-10T14:27:24;3.08;;;1.10;;
69970;SDS011;57301;50.328;8.542;2022-07-10T14:29:51;4.00;;;1.35;;
69970;SDS011;57301;50.328;8.542;2022-07-10T14:32:17;2.50;;;1.00;;
69970;SDS011;57301;50.328;8.542;2022-07-10T14:34:44;2.28;;;1.00;;
69970;SDS011;57301;50.328;8.542;2022-07-10T14:37:11;3.85;;;1.35;;
69970;SDS011;57301;50.328;8.542;2022-07-10T14:39:37;2.13;;;0.90;;
69970;SDS011;57301;50.328;8.542;2022-07-10T14:42:04;2.35;;;1.00;;
69970;SDS011;57301;50.328;8.542;2022-07-10T14:44:33;2.40;;;0.90;;
69970;SDS011;57301;50.328;8.542;2022-07-10T14:47:00;2.15;;;1.15;;
69970;SDS011;57301;50.328;8.542;2022-07-10T14:49:26;3.10;;;1.15;;
69970;SDS011;57301;50.328;8.542;2022-07-10T14:51:53;2.90;;;1.20;;
69970;SDS011;57301;50.328;8.542;2022-07-10T14:54:21;2.85;;;1.10;;
69970;SDS011;57301;50.328;8.542;2022-07-10T14:56:47;2.50;;;1.10;;
69970;SDS011;57301;50.328;8.542;2022-07-10T14:59:14;2.30;;;1.00;;
69970;SDS011;57301;50.328;8.542;2022-07-10T15:01:41;2.08;;;0.90;;
69970;SDS011;57301;50.328;8.542;2022-07-10T15:04:08;2.78;;;1.10;;
69970;SDS011;57301;50.328;8.542;2022-07-10T15:06:35;2.40;;;0.90;;
69970;SDS011;57301;50.328;8.542;2022-07-10T15:09:02;2.47;;;0.80;;
69970;SDS011;57301;50.328;8.542;2022-07-10T15:11:30;3.05;;;1.38;;
69970;SDS011;57301;50.328;8.542;2022-07-10T15:13:56;3.88;;;1.25;;
69970;SDS011;57301;50.328;8.542;2022-07-10T15:16:26;2.20;;;0.90;;
69970;SDS011;57301;50.328;8.542;2022-07-10T15:18:54;2.75;;;1.10;;
69970;SDS011;57301;50.328;8.542;2022-07-10T15:21:21;3.10;;;1.40;;
69970;SDS011;57301;50.328;8.542;2022-07-10T15:23:48;5.47;;;2.40;;
69970;SDS011;57301;50.328;8.542;2022-07-10T15:26:15;2.10;;;1.05;;
69970;SDS011;57301;50.328;8.542;2022-07-10T15:28:43;3.13;;;1.10;;
69970;SDS011;57301;50.328;8.542;2022-07-10T15:31:10;2.28;;;0.90;;
69970;SDS011;57301;50.328;8.542;2022-07-10T15:33:37;2.17;;;0.93;;
69970;SDS011;57301;50.328;8.542;2022-07-10T15:36:10;2.50;;;1.08;;
69970;SDS011;57301;50.328;8.542;2022-07-10T15:38:37;3.35;;;1.80;;
69970;SDS011;57301;50.328;8.542;2022-07-10T15:41:03;2.65;;;1.13;;
69970;SDS011;57301;50.328;8.542;2022-07-10T15:43:30;3.25;;;1.30;;
69970;SDS011;57301;50.328;8.542;2022-07-10T15:45:57;3.57;;;1.20;;
69970;SDS011;57301;50.328;8.542;2022-07-10T15:48:25;2.10;;;1.20;;